createdAt,value
2019-01-20T00:00:43.734Z,98873.82
2019-01-20T00:03:13.171Z,98869.57
2019-01-20T00:05:43.160Z,98868.92
2019-01-20T00:08:12.910Z,98865.48
2019-01-20T00:10:42.229Z,98873.54
2019-01-20T00:13:13.907Z,98864.03
2019-01-20T00:15:45.274Z,98860.09
2019-01-20T00:18:19.485Z,98868.38
2019-01-20T00:20:49.299Z,98867.94
2019-01-20T00:23:19.433Z,98871.88
2019-01-20T00:25:50.959Z,98869.36
2019-01-20T00:28:21.286Z,98864.08
2019-01-20T00:30:50.748Z,98864.08
2019-01-20T00:33:24.121Z,98868.92
2019-01-20T00:35:54.332Z,98870.20
2019-01-20T00:38:23.486Z,98864.19
2019-01-20T00:40:55.155Z,98868.06
2019-01-20T00:43:28.826Z,98863.60
2019-01-20T00:46:04.079Z,98865.45
2019-01-20T00:48:33.798Z,98863.84
2019-01-20T00:51:05.581Z,98863.30
2019-01-20T00:53:35.113Z,98865.87
2019-01-20T00:56:04.830Z,98869.24
2019-01-20T00:58:39.913Z,98867.90
2019-01-20T01:01:09.539Z,98862.67
2019-01-20T01:03:40.154Z,98866.53
2019-01-20T01:06:13.730Z,98858.84
2019-01-20T01:08:49.872Z,98857.59
2019-01-20T01:11:20.488Z,98868.77
2019-01-20T01:13:51.673Z,98862.36
2019-01-20T01:16:20.917Z,98859.74
2019-01-20T01:18:54.232Z,98861.88
2019-01-20T01:21:27.084Z,98860.94
2019-01-20T01:23:56.600Z,98857.10
2019-01-20T01:26:26.359Z,98853.13
2019-01-20T01:28:57.346Z,98857.55
2019-01-20T01:31:28.538Z,98855.05
2019-01-20T01:33:57.989Z,98854.62
2019-01-20T01:36:28.031Z,98858.47
2019-01-20T01:38:58.038Z,98860.20
2019-01-20T01:41:29.555Z,98858.08
2019-01-20T01:44:00.727Z,98861.18
2019-01-20T01:46:31.352Z,98862.56
2019-01-20T01:49:02.714Z,98860.83
2019-01-20T01:51:35.500Z,98863.48
2019-01-20T01:54:05.548Z,98858.77
2019-01-20T01:56:36.608Z,98856.30
2019-01-20T01:59:11.410Z,98859.33
2019-01-20T02:01:43.462Z,98864.56
2019-01-20T02:04:18.230Z,98862.80
2019-01-20T02:06:49.594Z,98862.75
2019-01-20T02:09:19.632Z,98860.83
2019-01-20T02:11:50.902Z,98861.78
2019-01-20T02:14:24.862Z,98854.43
2019-01-20T02:16:54.874Z,98862.77
2019-01-20T02:19:25.144Z,98865.81
2019-01-20T02:21:55.690Z,98868.42
2019-01-20T02:24:26.158Z,98873.55
2019-01-20T02:27:00.196Z,98870.01
2019-01-20T02:29:34.178Z,98867.50
2019-01-20T02:32:04.314Z,98870.53
2019-01-20T02:34:40.527Z,98869.52
2019-01-20T02:37:10.695Z,98867.70
2019-01-20T02:39:41.291Z,98873.24
2019-01-20T02:42:12.538Z,98866.37
2019-01-20T02:44:43.701Z,98865.14
2019-01-20T02:47:18.335Z,98874.26
2019-01-20T02:49:48.448Z,98873.03
2019-01-20T02:52:18.595Z,98873.05
2019-01-20T02:54:49.348Z,98868.83
2019-01-20T02:57:20.973Z,98871.36
2019-01-20T02:59:51.003Z,98864.89
2019-01-20T03:02:28.586Z,98859.34
2019-01-20T03:05:02.223Z,98854.70
2019-01-20T03:07:32.777Z,98856.47
2019-01-20T03:10:03.050Z,98853.95
2019-01-20T03:12:32.718Z,98862.57
2019-01-20T03:15:04.598Z,98859.22
2019-01-20T03:17:34.132Z,98862.59
2019-01-20T03:20:03.584Z,98860.53
2019-01-20T03:22:35.574Z,98858.79
2019-01-20T03:25:06.087Z,98857.95
2019-01-20T03:27:35.249Z,98864.08
2019-01-20T03:30:08.413Z,98859.94
2019-01-20T03:32:41.105Z,98856.84
2019-01-20T03:35:11.644Z,98864.25
2019-01-20T03:37:43.571Z,98869.09
2019-01-20T03:40:16.387Z,98860.88
2019-01-20T03:42:51.239Z,98865.56
2019-01-20T03:45:21.076Z,98859.91
2019-01-20T03:47:51.312Z,98863.35
2019-01-20T03:50:22.623Z,98863.81
2019-01-20T03:52:52.183Z,98858.62
2019-01-20T03:55:23.241Z,98859.09
2019-01-20T03:57:52.500Z,98860.72
2019-01-20T04:00:27.767Z,98866.23
2019-01-20T04:03:04.540Z,98864.97
2019-01-20T04:05:33.783Z,98865.45
2019-01-20T04:08:03.755Z,98863.35
2019-01-20T04:10:35.538Z,98865.54
2019-01-20T04:13:06.453Z,98866.90
2019-01-20T04:15:41.033Z,98864.44
2019-01-20T04:18:10.533Z,98867.41
2019-01-20T04:20:40.809Z,98870.08
2019-01-20T04:23:10.831Z,98862.75
2019-01-20T04:25:40.410Z,98870.91
2019-01-20T04:28:09.746Z,98865.27
2019-01-20T04:30:43.304Z,98863.55
2019-01-20T04:33:13.335Z,98861.33
2019-01-20T04:36:07.123Z,98862.12
2019-01-20T04:38:39.739Z,98855.23
2019-01-20T04:41:09.863Z,98853.02
2019-01-20T04:43:39.346Z,98849.24
2019-01-20T04:46:08.833Z,98853.58
2019-01-20T04:48:40.489Z,98855.80
2019-01-20T04:51:09.921Z,98855.02
2019-01-20T04:53:41.875Z,98858.48
2019-01-20T04:56:11.337Z,98859.72
2019-01-20T04:58:42.992Z,98858.03
2019-01-20T05:01:15.562Z,98850.28
2019-01-20T05:03:45.462Z,98856.34
2019-01-20T05:06:15.993Z,98859.82
2019-01-20T05:08:46.018Z,98859.80
2019-01-20T05:11:15.791Z,98860.23
2019-01-20T05:13:45.815Z,98855.96
2019-01-20T05:16:15.520Z,98861.62
2019-01-20T05:18:45.525Z,98864.67
2019-01-20T05:21:15.278Z,98863.82
2019-01-20T05:23:45.047Z,98867.70
2019-01-20T05:26:14.228Z,98870.26
2019-01-20T05:28:44.016Z,98872.47
2019-01-20T05:31:15.301Z,98875.89
2019-01-20T05:33:46.045Z,98872.89
2019-01-20T05:36:18.410Z,98868.62
2019-01-20T05:38:48.170Z,98867.33
2019-01-20T05:41:18.063Z,98869.45
2019-01-20T05:43:48.076Z,98873.37
2019-01-20T05:46:17.814Z,98867.73
2019-01-20T05:48:48.472Z,98867.67
2019-01-20T05:51:19.456Z,98866.38
2019-01-20T05:53:52.658Z,98870.28
2019-01-20T05:56:25.527Z,98872.00
2019-01-20T05:58:57.552Z,98875.52
2019-01-20T06:01:27.389Z,98871.56
2019-01-20T06:03:56.607Z,98872.86
2019-01-20T06:06:27.875Z,98877.30
2019-01-20T06:08:58.979Z,98881.61
2019-01-20T06:11:28.412Z,98877.46
2019-01-20T06:14:01.962Z,98881.28
2019-01-20T06:16:31.661Z,98881.28
2019-01-20T06:19:01.396Z,98886.84
2019-01-20T06:21:31.174Z,98893.30
2019-01-20T06:24:07.648Z,98896.31
2019-01-20T06:26:40.767Z,98897.20
2019-01-20T06:29:14.290Z,98903.22
2019-01-20T06:31:46.450Z,98904.99
2019-01-20T06:34:18.071Z,98911.86
2019-01-20T06:36:48.122Z,98903.29
2019-01-20T06:39:20.702Z,98903.21
2019-01-20T06:41:51.034Z,98909.63
2019-01-20T06:44:21.044Z,98907.45
2019-01-20T06:46:57.922Z,98908.33
2019-01-20T06:49:29.502Z,98907.03
2019-01-20T06:52:01.563Z,98911.30
2019-01-20T06:54:31.252Z,98913.02
2019-01-20T06:57:01.184Z,98913.88
2019-01-20T06:59:30.863Z,98913.48
2019-01-20T07:02:01.254Z,98916.58
2019-01-20T07:04:35.237Z,98922.16
2019-01-20T07:07:10.967Z,98927.74
2019-01-20T07:09:42.452Z,98925.65
2019-01-20T07:12:12.763Z,98935.56
2019-01-20T07:14:41.970Z,98944.59
2019-01-20T07:17:11.607Z,98940.30
2019-01-20T07:19:41.250Z,98942.45
2019-01-20T07:22:13.828Z,98944.14
2019-01-20T07:24:47.750Z,98950.19
2019-01-20T07:27:18.973Z,98954.06
2019-01-20T07:29:49.116Z,98951.95
2019-01-20T07:32:20.870Z,98955.36
2019-01-20T07:34:50.360Z,98958.80
2019-01-20T07:37:23.032Z,98961.78
2019-01-20T07:39:52.809Z,98972.09
2019-01-20T07:42:23.187Z,98971.69
2019-01-20T07:44:53.690Z,98974.25
2019-01-20T07:47:23.718Z,98977.69
2019-01-20T07:49:53.000Z,98978.55
2019-01-20T07:52:22.521Z,98979.00
2019-01-20T07:54:52.027Z,98991.03
2019-01-20T07:57:23.099Z,98997.04
2019-01-20T07:59:52.730Z,98997.41
2019-01-20T08:02:22.399Z,98993.99
2019-01-20T08:04:52.919Z,98994.37
2019-01-20T08:07:23.460Z,98996.97
2019-01-20T08:09:53.248Z,98994.80
2019-01-20T08:12:23.860Z,98996.06
2019-01-20T08:14:53.494Z,99001.59
2019-01-20T08:17:24.696Z,99007.66
2019-01-20T08:19:55.256Z,99004.59
2019-01-20T08:22:26.321Z,99001.96
2019-01-20T08:24:55.900Z,99007.08
2019-01-20T08:27:27.038Z,99016.91
2019-01-20T08:29:56.235Z,99019.00
2019-01-20T08:32:25.506Z,99011.20
2019-01-20T08:34:59.188Z,99012.39
2019-01-20T08:37:34.234Z,99017.52
2019-01-20T08:40:05.723Z,99020.00
2019-01-20T08:42:35.580Z,99019.87
2019-01-20T08:45:09.866Z,99020.16
2019-01-20T08:47:48.103Z,99019.56
2019-01-20T08:50:18.736Z,99026.45
2019-01-20T08:52:49.745Z,99024.11
2019-01-20T08:55:19.347Z,99022.27
2019-01-20T08:57:59.135Z,99025.17
2019-01-20T09:00:28.435Z,99020.02
2019-01-20T09:02:57.892Z,99021.55
2019-01-20T09:05:27.543Z,99025.78
2019-01-20T09:07:57.586Z,99030.22
2019-01-20T09:10:28.410Z,99032.65
2019-01-20T09:13:03.675Z,99032.13
2019-01-20T09:15:32.850Z,99033.77
2019-01-20T09:18:02.075Z,99036.16
2019-01-20T09:20:32.647Z,99041.63
2019-01-20T09:23:05.137Z,99044.34
2019-01-20T09:25:34.713Z,99047.47
2019-01-20T09:28:04.460Z,99047.41
2019-01-20T09:30:34.001Z,99049.42
2019-01-20T09:33:03.229Z,99054.08
2019-01-20T09:35:32.840Z,99055.25
2019-01-20T09:38:02.953Z,99057.52
2019-01-20T09:40:32.167Z,99058.16
2019-01-20T09:43:02.597Z,99054.72
2019-01-20T09:45:32.744Z,99056.84
2019-01-20T09:48:02.011Z,99053.13
2019-01-20T09:50:31.550Z,99061.04
2019-01-20T09:53:03.251Z,99054.88
2019-01-20T09:55:32.761Z,99062.30
2019-01-20T09:58:03.759Z,99055.96
2019-01-20T10:00:36.556Z,99056.32
2019-01-20T10:03:16.203Z,99058.74
2019-01-20T10:05:42.366Z,99063.81
2019-01-20T10:08:11.609Z,99068.08
2019-01-20T10:10:44.622Z,99058.73
2019-01-20T10:13:14.322Z,99060.00
2019-01-20T10:15:44.165Z,99059.08
2019-01-20T10:18:13.670Z,99058.91
2019-01-20T10:20:44.582Z,99060.14
2019-01-20T10:23:17.011Z,99060.05
2019-01-20T10:25:46.725Z,99061.35
2019-01-20T10:28:18.869Z,99058.56
2019-01-20T10:30:50.139Z,99056.20
2019-01-20T10:33:19.682Z,99061.56
2019-01-20T10:36:08.136Z,99062.83
2019-01-20T10:38:38.056Z,99059.52
2019-01-20T10:41:13.002Z,99056.03
2019-01-20T10:43:43.038Z,99056.90
2019-01-20T10:46:13.197Z,99058.24
2019-01-20T10:48:46.237Z,99062.08
2019-01-20T10:51:20.407Z,99056.99
2019-01-20T10:53:53.126Z,99061.16
2019-01-20T10:56:23.922Z,99054.02
2019-01-20T10:59:16.501Z,99056.09
2019-01-20T11:01:46.612Z,99056.41
2019-01-20T11:04:15.842Z,99059.53
2019-01-20T11:06:48.715Z,99054.05
2019-01-20T11:09:17.941Z,99055.10
2019-01-20T11:11:47.968Z,99059.73
2019-01-20T11:14:17.163Z,99061.22
2019-01-20T11:16:46.410Z,99058.42
2019-01-20T11:19:16.377Z,99052.54
2019-01-20T11:21:45.957Z,99055.84
2019-01-20T11:24:17.153Z,99053.09
2019-01-20T11:26:46.434Z,99057.92
2019-01-20T11:29:16.518Z,99063.22
2019-01-20T11:31:48.468Z,99061.53
2019-01-20T11:34:21.081Z,99062.05
2019-01-20T11:36:53.761Z,99058.81
2019-01-20T11:39:24.157Z,99059.69
2019-01-20T11:41:54.179Z,99064.92
2019-01-20T11:44:40.736Z,99070.48
2019-01-20T11:47:18.714Z,99064.05
2019-01-20T11:49:51.680Z,99065.73
2019-01-20T11:52:24.748Z,99066.14
2019-01-20T11:54:54.224Z,99066.49
2019-01-20T11:57:27.162Z,99066.20
2019-01-20T12:00:01.399Z,99065.52
2019-01-20T12:02:33.188Z,99064.53
2019-01-20T12:05:02.771Z,99055.83
2019-01-20T12:07:32.397Z,99055.00
2019-01-20T12:10:08.591Z,99061.52
2019-01-20T12:12:41.942Z,99057.13
2019-01-20T12:15:14.954Z,99053.59
2019-01-20T12:17:44.843Z,99054.86
2019-01-20T12:20:14.506Z,99056.61
2019-01-20T12:22:44.408Z,99049.58
2019-01-20T12:25:15.096Z,99055.52
2019-01-20T12:27:44.653Z,99047.56
2019-01-20T12:30:20.389Z,99050.63
2019-01-20T12:32:52.084Z,99048.98
2019-01-20T12:35:21.295Z,99047.19
2019-01-20T12:37:51.182Z,99044.52
2019-01-20T12:40:29.588Z,99047.45
2019-01-20T12:43:21.703Z,99042.40
2019-01-20T12:45:51.450Z,99044.95
2019-01-20T12:48:21.363Z,99039.48
2019-01-20T12:50:51.272Z,99043.42
2019-01-20T12:53:26.569Z,99044.08
2019-01-20T12:55:57.460Z,99033.42
2019-01-20T12:58:28.437Z,99042.66
2019-01-20T13:00:58.779Z,99042.48
2019-01-20T13:03:33.148Z,99040.97
2019-01-20T13:06:02.387Z,99033.88
2019-01-20T13:08:31.652Z,99035.36
2019-01-20T13:11:00.894Z,99034.63
2019-01-20T13:13:30.445Z,99040.97
2019-01-20T13:15:59.928Z,99037.59
2019-01-20T13:18:29.214Z,99036.58
2019-01-20T13:20:58.459Z,99032.78
2019-01-20T13:23:29.629Z,99034.98
2019-01-20T13:25:58.981Z,99038.44
2019-01-20T13:28:29.139Z,99031.38
2019-01-20T13:30:58.328Z,99032.63
2019-01-20T13:33:29.357Z,99032.81
2019-01-20T13:35:58.783Z,99029.73
2019-01-20T13:38:29.904Z,99036.29
2019-01-20T13:41:05.546Z,99039.14
2019-01-20T13:43:35.219Z,99037.69
2019-01-20T13:46:05.104Z,99034.38
2019-01-20T13:48:34.356Z,99038.10
2019-01-20T13:51:04.092Z,99036.92
2019-01-20T13:53:38.392Z,99038.80
2019-01-20T13:56:11.539Z,99040.70
2019-01-20T13:58:41.219Z,99039.23
2019-01-20T14:01:10.617Z,99032.97
2019-01-20T14:03:40.176Z,99034.86
2019-01-20T14:06:10.289Z,99035.16
2019-01-20T14:08:44.248Z,99036.77
2019-01-20T14:11:13.623Z,99039.10
2019-01-20T14:13:42.940Z,99037.02
2019-01-20T14:16:13.341Z,99034.31
2019-01-20T14:18:45.412Z,99039.80
2019-01-20T14:21:13.952Z,99039.22
2019-01-20T14:23:43.530Z,99037.98
2019-01-20T14:26:15.197Z,99032.55
2019-01-20T14:28:44.415Z,99039.67
2019-01-20T14:31:16.553Z,99042.13
2019-01-20T14:33:46.341Z,99038.45
2019-01-20T14:36:15.559Z,99040.30
2019-01-20T14:38:46.233Z,99042.46
2019-01-20T14:41:15.671Z,99046.98
2019-01-20T14:43:44.912Z,99047.19
2019-01-20T14:46:14.451Z,99050.20
2019-01-20T14:48:44.161Z,99044.18
2019-01-20T14:51:14.756Z,99056.17
2019-01-20T14:53:44.552Z,99056.52
2019-01-20T14:56:14.107Z,99056.64
2019-01-20T14:58:44.140Z,99052.79
2019-01-20T15:01:16.338Z,99060.00
2019-01-20T15:03:46.140Z,99061.53
2019-01-20T15:06:18.111Z,99063.13
2019-01-20T15:08:47.638Z,99065.72
2019-01-20T15:11:17.128Z,99066.48
2019-01-20T15:13:46.357Z,99063.92
2019-01-20T15:16:15.932Z,99069.18
2019-01-20T15:18:45.440Z,99067.16
2019-01-20T15:21:14.988Z,99073.91
2019-01-20T15:23:46.311Z,99080.16
2019-01-20T15:26:16.122Z,99078.42
2019-01-20T15:28:46.238Z,99077.47
2019-01-20T15:31:17.273Z,99083.55
2019-01-20T15:33:47.433Z,99089.59
2019-01-20T15:36:20.433Z,99088.55
2019-01-20T15:38:50.019Z,99089.08
2019-01-20T15:41:23.045Z,99097.61
2019-01-20T15:43:53.107Z,99099.20
2019-01-20T15:46:26.371Z,99108.50
2019-01-20T15:48:55.601Z,99106.78
2019-01-20T15:51:26.304Z,99107.27
2019-01-20T15:53:56.167Z,99109.00
2019-01-20T15:56:27.069Z,99111.47
2019-01-20T15:58:56.885Z,99115.69
2019-01-20T16:01:28.265Z,99124.14
2019-01-20T16:03:58.801Z,99118.77
2019-01-20T16:06:28.767Z,99115.07
2019-01-20T16:08:57.955Z,99120.54
2019-01-20T16:11:31.256Z,99131.56
2019-01-20T16:14:00.408Z,99130.68
2019-01-20T16:16:35.243Z,99133.13
2019-01-20T16:19:08.658Z,99135.45
2019-01-20T16:21:38.217Z,99137.46
2019-01-20T16:24:09.903Z,99140.56
2019-01-20T16:26:43.879Z,99145.63
2019-01-20T16:29:18.165Z,99141.66
2019-01-20T16:31:48.475Z,99150.86
2019-01-20T16:34:19.233Z,99151.59
2019-01-20T16:36:48.967Z,99154.61
2019-01-20T16:39:18.712Z,99156.20
2019-01-20T16:41:49.521Z,99169.05
2019-01-20T16:44:18.849Z,99174.44
2019-01-20T16:46:48.264Z,99167.92
2019-01-20T16:49:18.388Z,99174.72
2019-01-20T16:51:47.918Z,99169.09
2019-01-20T16:54:17.124Z,99180.70
2019-01-20T16:56:47.202Z,99188.06
2019-01-20T16:59:17.395Z,99190.48
2019-01-20T17:01:48.891Z,99184.56
2019-01-20T17:04:18.263Z,99196.20
2019-01-20T17:06:48.137Z,99198.03
2019-01-20T17:09:18.796Z,99201.73
2019-01-20T17:11:48.112Z,99203.45
2019-01-20T17:14:17.615Z,99204.22
2019-01-20T17:16:48.589Z,99209.29
2019-01-20T17:19:18.399Z,99211.93
2019-01-20T17:21:48.727Z,99214.14
2019-01-20T17:24:19.257Z,99214.86
2019-01-20T17:26:48.525Z,99215.61
2019-01-20T17:29:18.181Z,99229.63
2019-01-20T17:31:47.410Z,99223.44
2019-01-20T17:34:16.912Z,99221.69
2019-01-20T17:36:46.638Z,99221.69
2019-01-20T17:39:16.934Z,99238.87
2019-01-20T17:41:46.460Z,99234.05
2019-01-20T17:44:16.515Z,99231.95
2019-01-20T17:46:45.848Z,99236.65
2019-01-20T17:49:17.063Z,99237.87
2019-01-20T17:51:46.443Z,99241.89
2019-01-20T17:54:15.802Z,99240.61
2019-01-20T17:56:45.139Z,99248.55
2019-01-20T17:59:14.631Z,99248.85
2019-01-20T18:01:47.776Z,99256.40
2019-01-20T18:04:17.977Z,99259.23
2019-01-20T18:06:47.813Z,99257.86
2019-01-20T18:09:17.726Z,99253.09
2019-01-20T18:11:53.027Z,99256.55
2019-01-20T18:14:22.302Z,99262.69
2019-01-20T18:16:51.821Z,99262.13
2019-01-20T18:19:21.293Z,99263.63
2019-01-20T18:21:52.005Z,99272.36
2019-01-20T18:24:23.135Z,99278.20
2019-01-20T18:26:55.516Z,99282.16
2019-01-20T18:29:24.739Z,99281.48
2019-01-20T18:31:56.232Z,99286.87
2019-01-20T18:34:25.489Z,99293.00
2019-01-20T18:36:56.823Z,99300.52
2019-01-20T18:39:26.815Z,99298.69
2019-01-20T18:41:56.301Z,99304.08
2019-01-20T18:44:25.872Z,99300.03
2019-01-20T18:46:56.966Z,99308.31
2019-01-20T18:49:29.369Z,99310.13
2019-01-20T18:51:58.614Z,99309.77
2019-01-20T18:54:28.163Z,99322.03
2019-01-20T18:57:01.635Z,99321.93
2019-01-20T18:59:31.646Z,99318.28
2019-01-20T19:02:01.301Z,99322.91
2019-01-20T19:04:31.905Z,99320.34
2019-01-20T19:07:04.294Z,99324.78
2019-01-20T19:09:33.961Z,99335.45
2019-01-20T19:12:04.560Z,99335.90
2019-01-20T19:14:35.316Z,99335.84
2019-01-20T19:17:04.550Z,99337.14
2019-01-20T19:19:34.079Z,99338.37
2019-01-20T19:22:03.955Z,99343.28
2019-01-20T19:24:33.184Z,99340.94
2019-01-20T19:27:03.567Z,99347.88
2019-01-20T19:29:34.246Z,99350.92
2019-01-20T19:32:03.847Z,99353.69
2019-01-20T19:34:33.111Z,99352.41
2019-01-20T19:37:06.729Z,99362.34
2019-01-20T19:39:36.926Z,99359.47
2019-01-20T19:42:06.419Z,99354.44
2019-01-20T19:44:35.651Z,99360.44
2019-01-20T19:47:05.300Z,99355.66
2019-01-20T19:49:35.434Z,99358.90
2019-01-20T19:52:05.090Z,99362.63
2019-01-20T19:54:35.627Z,99367.84
2019-01-20T19:57:05.521Z,99360.66
2019-01-20T19:59:37.884Z,99363.63
2019-01-20T20:02:10.273Z,99360.13
2019-01-20T20:04:41.815Z,99368.17
2019-01-20T20:07:15.405Z,99372.92
2019-01-20T20:09:45.757Z,99370.95
2019-01-20T20:12:16.149Z,99376.07
2019-01-20T20:14:46.596Z,99378.39
2019-01-20T20:17:19.336Z,99377.55
2019-01-20T20:20:05.736Z,99381.42
2019-01-20T20:22:35.647Z,99382.80
2019-01-20T20:25:06.394Z,99389.69
2019-01-20T20:27:37.997Z,99392.88
2019-01-20T20:30:11.801Z,99397.64
2019-01-20T20:32:42.628Z,99404.21
2019-01-20T20:35:11.839Z,99398.61
2019-01-20T20:37:45.969Z,99401.27
2019-01-20T20:40:17.541Z,99406.87
2019-01-20T20:42:47.188Z,99408.48
2019-01-20T20:45:22.268Z,99408.47
2019-01-20T20:47:51.984Z,99411.12
2019-01-20T20:50:22.806Z,99412.82
2019-01-20T20:52:53.291Z,99418.03
2019-01-20T20:55:24.908Z,99413.16
2019-01-20T20:57:54.358Z,99418.01
2019-01-20T21:00:47.821Z,99416.25
2019-01-20T21:03:25.426Z,99417.23
2019-01-20T21:05:56.621Z,99426.30
2019-01-20T21:08:30.876Z,99428.45
2019-01-20T21:11:02.607Z,99432.72
2019-01-20T21:13:33.019Z,99436.23
2019-01-20T21:16:05.338Z,99439.33
2019-01-20T21:18:38.387Z,99437.59
2019-01-20T21:21:08.498Z,99430.81
2019-01-20T21:23:39.472Z,99442.50
2019-01-20T21:26:10.815Z,99442.13
2019-01-20T21:28:40.648Z,99449.50
2019-01-20T21:31:10.155Z,99451.67
2019-01-20T21:33:40.795Z,99452.14
2019-01-20T21:36:10.623Z,99463.81
2019-01-20T21:38:43.045Z,99460.34
2019-01-20T21:41:14.039Z,99469.44
2019-01-20T21:43:43.925Z,99474.19
2019-01-20T21:46:18.744Z,99471.22
2019-01-20T21:48:48.313Z,99473.34
2019-01-20T21:51:19.358Z,99479.42
2019-01-20T21:53:57.105Z,99484.64
2019-01-20T21:56:29.726Z,99488.95
2019-01-20T21:59:03.483Z,99491.53
2019-01-20T22:01:33.212Z,99495.44
2019-01-20T22:04:03.331Z,99498.87
2019-01-20T22:06:37.958Z,99497.97
2019-01-20T22:09:10.197Z,99505.41
2019-01-20T22:11:41.463Z,99503.27
2019-01-20T22:14:17.623Z,99509.33
2019-01-20T22:16:52.790Z,99501.55
2019-01-20T22:19:21.194Z,99508.85
2019-01-20T22:21:51.003Z,99513.27
2019-01-20T22:24:24.769Z,99518.44
2019-01-20T22:26:58.922Z,99518.92
2019-01-20T22:29:28.530Z,99519.76
2019-01-20T22:32:05.182Z,99524.48
2019-01-20T22:34:40.726Z,99526.27
2019-01-20T22:37:11.281Z,99526.73
2019-01-20T22:39:44.164Z,99534.07
2019-01-20T22:42:15.974Z,99530.63
2019-01-20T22:44:46.509Z,99540.98
2019-01-20T22:47:16.631Z,99541.44
2019-01-20T22:49:50.914Z,99537.09
2019-01-20T22:52:20.410Z,99547.56
2019-01-20T22:54:49.979Z,99538.09
2019-01-20T22:57:20.061Z,99545.82
2019-01-20T22:59:53.303Z,99542.39
2019-01-20T23:02:23.548Z,99552.78
2019-01-20T23:04:52.918Z,99556.23
2019-01-20T23:07:22.710Z,99555.82
2019-01-20T23:09:52.816Z,99560.13
2019-01-20T23:12:22.602Z,99554.11
2019-01-20T23:14:52.105Z,99556.25
2019-01-20T23:17:23.523Z,99561.45
2019-01-20T23:19:54.343Z,99555.44
2019-01-20T23:22:23.557Z,99567.53
2019-01-20T23:24:53.617Z,99565.78
2019-01-20T23:27:29.165Z,99564.04
2019-01-20T23:29:59.995Z,99567.48
2019-01-20T23:32:30.447Z,99565.34
2019-01-20T23:35:01.080Z,99564.50
2019-01-20T23:37:33.993Z,99570.53
2019-01-20T23:40:05.028Z,99572.70
2019-01-20T23:42:40.187Z,99571.82
2019-01-20T23:45:10.413Z,99567.52
2019-01-20T23:47:42.054Z,99566.22
2019-01-20T23:50:11.839Z,99567.09
2019-01-20T23:52:46.405Z,99569.70
2019-01-20T23:55:15.952Z,99563.20
2019-01-20T23:57:45.583Z,99567.97
